Time;durP1;ratioP1;P1;durP2;ratioP2;P2;SDS_P1;SDS_P2;PMS_P1;PMS_P2;Temp;Humidity;BMP_temperature;BMP_pressure;BME280_temperature;BME280_humidity;BME280_pressure;Samples;Min_cycle;Max_cycle;Signal;HPM_P1;HPM_P2
2023/06/29 00:09:12;;;;;;;39.25;25.30;;;19.30;99.90;;;;;;5500535;22;20045;-85
2023/06/29 04:15:00;;;;;;;;;;;;;;;;;;;;;
2023/06/29 04:51:39;;;;;;;28.02;18.30;;;;;;;;;;4691630;22;20054;-83
2023/06/29 04:54:24;;;;;;;31.95;18.25;;;19.80;2.50;;;;;;5023353;23;20068;-84
2023/06/29 04:57:25;;;;;;;;;;;;;;;;;;;;;
2023/06/29 05:11:02;;;;;;;29.92;19.80;;;;;;;;;;4979549;28;20471;-83
2023/06/29 05:24:49;;;;;;;30.05;19.50;;;;;;;;;;5002133;28;20036;-82
2023/06/29 12:39:31;;;;;;;32.47;20.27;;;22.60;99.90;;;;;;5207477;23;20050;-57
2023/06/29 12:41:57;;;;;;;34.72;22.67;;;23.10;99.90;;;;;;5005393;28;20054;-56
2023/06/29 12:44:22;;;;;;;32.67;20.83;;;22.70;99.90;;;;;;5000317;28;20041;-56
2023/06/29 12:46:48;;;;;;;35.40;22.80;;;23.00;1.00;;;;;;4990764;28;20043;-57
2023/06/29 12:49:14;;;;;;;33.13;21.05;;;23.00;37.60;;;;;;4967075;28;20151;-56
2023/06/29 12:51:39;;;;;;;37.65;23.33;;;22.20;88.10;;;;;;4977922;28;20062;-57
2023/06/29 12:54:05;;;;;;;38.45;24.80;;;21.90;99.90;;;;;;4994616;28;20032;-55
2023/06/29 12:56:30;;;;;;;41.08;25.73;;;21.60;99.90;;;;;;4982291;28;20069;-55
2023/06/29 12:58:56;;;;;;;41.40;26.00;;;22.20;99.90;;;;;;4992651;28;20046;-58
2023/06/29 13:01:22;;;;;;;40.03;23.55;;;21.40;99.90;;;;;;4999792;28;20030;-57
2023/06/29 13:03:48;;;;;;;40.63;25.83;;;22.00;99.90;;;;;;4969868;28;20047;-57
2023/06/29 13:06:14;;;;;;;42.05;27.90;;;21.10;99.90;;;;;;4990288;28;20538;-56
2023/06/29 13:08:39;;;;;;;43.38;25.02;;;21.10;99.90;;;;;;4973454;28;20043;-58
2023/06/29 13:11:05;;;;;;;41.22;25.13;;;20.90;99.90;;;;;;4972142;28;20479;-55
2023/06/29 13:13:30;;;;;;;38.38;23.73;;;20.80;99.90;;;;;;4991806;28;20037;-56
2023/06/29 13:15:56;;;;;;;39.22;24.48;;;20.90;99.90;;;;;;4964111;28;20074;-58
2023/06/29 13:18:22;;;;;;;47.60;26.52;;;20.70;99.90;;;;;;4999317;28;20044;-56
2023/06/29 13:20:47;;;;;;;49.75;28.02;;;20.60;99.90;;;;;;4978600;28;20054;-57
2023/06/29 13:23:13;;;;;;;64.47;30.00;;;19.90;1.00;;;;;;4989479;28;20053;-62
2023/06/29 13:25:39;;;;;;;56.85;30.02;;;19.80;99.90;;;;;;4988040;28;20042;-56
2023/06/29 13:28:05;;;;;;;63.58;33.50;;;19.50;99.90;;;;;;4960945;28;20133;-55
2023/06/29 13:30:32;;;;;;;65.97;32.00;;;18.30;99.90;;;;;;4988066;28;20172;-56
2023/06/29 13:32:57;;;;;;;68.15;33.40;;;18.80;99.90;;;;;;4978666;28;20035;-55
2023/06/29 13:35:23;;;;;;;61.78;32.92;;;18.70;99.90;;;;;;4991725;28;20034;-54
2023/06/29 13:37:49;;;;;;;71.03;34.15;;;18.50;99.90;;;;;;4979912;28;20035;-57
2023/06/29 13:40:15;;;;;;;68.88;33.58;;;19.20;99.90;;;;;;4988610;28;20041;-57
2023/06/29 13:42:41;;;;;;;74.00;34.67;;;18.80;99.90;;;;;;4963181;28;20603;-56
2023/06/29 13:45:07;;;;;;;81.68;38.40;;;18.70;99.90;;;;;;4960810;28;20064;-57
2023/06/29 13:47:33;;;;;;;78.72;39.90;;;18.60;99.90;;;;;;4992480;28;20042;-57
2023/06/29 13:49:59;;;;;;;75.60;36.97;;;;;;;;;;4992777;28;20042;-56
2023/06/29 13:52:24;;;;;;;72.28;38.63;;;18.50;99.90;;;;;;4988285;28;20053;-54
2023/06/29 13:54:50;;;;;;;67.65;36.05;;;18.20;99.90;;;;;;4968974;28;20397;-59
2023/06/29 13:57:16;;;;;;;70.78;36.97;;;18.60;99.90;;;;;;4993526;28;20391;-59
2023/06/29 13:59:42;;;;;;;68.00;34.60;;;;;;;;;;4990197;28;20121;-55
2023/06/29 14:02:07;;;;;;;52.83;27.33;;;18.50;99.90;;;;;;4991442;28;20072;-55
2023/06/29 14:04:33;;;;;;;56.63;30.08;;;18.50;99.90;;;;;;4993459;28;20046;-56
2023/06/29 14:06:59;;;;;;;57.78;29.23;;;18.40;99.90;;;;;;4987507;28;20225;-56
2023/06/29 14:09:27;;;;;;;51.55;25.38;;;18.50;99.90;;;;;;4987240;28;20093;-55
2023/06/29 14:11:53;;;;;;;47.10;25.90;;;19.10;99.90;;;;;;4967467;28;20038;-58
2023/06/29 14:14:18;;;;;;;18.73;11.30;;;18.10;99.90;;;;;;4972134;28;20037;-57
2023/06/29 14:16:45;;;;;;;18.02;11.73;;;18.50;99.90;;;;;;4986970;28;20124;-56
2023/06/29 14:19:12;;;;;;;17.98;10.80;;;18.40;99.90;;;;;;4985556;28;20050;-54
2023/06/29 14:21:37;;;;;;;17.67;9.90;;;18.30;99.90;;;;;;4993164;28;20174;-57
2023/06/29 14:24:03;;;;;;;11.02;6.80;;;18.50;99.90;;;;;;4991046;28;20050;-56
2023/06/29 14:26:28;;;;;;;9.60;5.88;;;18.50;99.90;;;;;;4993652;28;20080;-55
2023/06/29 14:28:54;;;;;;;8.25;5.05;;;18.20;99.90;;;;;;4987816;28;20039;-54
2023/06/29 14:31:20;;;;;;;8.32;4.60;;;18.30;99.90;;;;;;4988794;28;20042;-55
2023/06/29 14:33:45;;;;;;;7.40;4.20;;;18.30;99.90;;;;;;4990221;28;20520;-57
2023/06/29 14:36:11;;;;;;;7.85;5.25;;;18.40;99.90;;;;;;4991497;28;20034;-52
2023/06/29 14:38:37;;;;;;;10.18;4.65;;;18.40;99.90;;;;;;4996114;28;20744;-55
2023/06/29 14:41:04;;;;;;;6.97;4.25;;;18.00;99.90;;;;;;4979562;28;20042;-56
2023/06/29 14:43:29;;;;;;;10.05;3.40;;;18.50;99.90;;;;;;4988304;28;20095;-52
2023/06/29 14:45:56;;;;;;;9.48;3.47;;;18.50;99.90;;;;;;4961893;28;20043;-52
2023/06/29 14:48:22;;;;;;;8.40;3.30;;;18.10;99.90;;;;;;4983847;28;20422;-56
2023/06/29 14:50:48;;;;;;;9.20;2.95;;;18.30;99.90;;;;;;4986469;28;20502;-51
2023/06/29 14:53:16;;;;;;;10.13;3.03;;;17.90;99.90;;;;;;4982906;28;20066;-56
2023/06/29 14:55:43;;;;;;;8.05;2.80;;;17.90;99.90;;;;;;4989481;28;20035;-56
2023/06/29 14:58:08;;;;;;;7.15;2.50;;;17.70;99.90;;;;;;4958955;28;20039;-53
2023/06/29 15:00:34;;;;;;;6.65;2.92;;;18.10;99.90;;;;;;4970378;28;20048;-55
2023/06/29 15:02:59;;;;;;;8.73;2.15;;;18.10;99.90;;;;;;4965877;28;20057;-56
2023/06/29 15:05:25;;;;;;;5.93;2.05;;;18.10;99.90;;;;;;4961823;28;20054;-55
2023/06/29 15:07:51;;;;;;;5.63;2.30;;;18.30;99.90;;;;;;4982332;28;20085;-56
2023/06/29 15:10:16;;;;;;;6.65;2.53;;;17.60;99.90;;;;;;4976908;28;20109;-58
2023/06/29 15:12:42;;;;;;;7.88;2.38;;;18.10;99.90;;;;;;4976183;28;20081;-57
2023/06/29 15:15:08;;;;;;;6.05;2.55;;;;;;;;;;4990228;28;20031;-55
2023/06/29 15:17:34;;;;;;;9.13;2.75;;;17.90;99.90;;;;;;4992589;28;20070;-54
2023/06/29 15:20:00;;;;;;;8.23;2.60;;;17.90;99.90;;;;;;4985510;28;20560;-52
2023/06/29 15:22:26;;;;;;;5.90;2.55;;;18.00;99.90;;;;;;4995288;28;20121;-53
2023/06/29 15:24:53;;;;;;;6.90;2.53;;;;;;;;;;4988993;28;20034;-56
2023/06/29 15:27:19;;;;;;;6.28;2.03;;;17.80;99.90;;;;;;4962928;28;20039;-57
2023/06/29 15:29:44;;;;;;;6.18;2.67;;;17.60;99.90;;;;;;4959116;28;20434;-53
2023/06/29 15:32:10;;;;;;;8.50;2.50;;;17.40;99.90;;;;;;4992753;28;20113;-55
2023/06/29 15:34:36;;;;;;;5.38;1.88;;;17.60;99.90;;;;;;4996861;28;20484;-55
2023/06/29 15:37:01;;;;;;;4.95;1.73;;;17.30;99.90;;;;;;4979369;28;20046;-57
2023/06/29 15:39:27;;;;;;;5.25;1.85;;;17.30;99.90;;;;;;4993173;28;20042;-52
2023/06/29 15:41:53;;;;;;;5.30;2.00;;;17.50;99.90;;;;;;4977417;28;20039;-52
2023/06/29 15:44:18;;;;;;;5.22;1.70;;;17.60;99.90;;;;;;4982566;28;20118;-55
2023/06/29 15:46:53;;;;;;;6.20;1.80;;;17.10;99.90;;;;;;4957695;28;20134;-57
2023/06/29 15:49:19;;;;;;;;;;;;;;;;;;4977477;28;20109;-54
2023/06/29 15:51:45;;;;;;;5.10;1.67;;;17.30;99.90;;;;;;4990240;28;19925;-55
2023/06/29 15:54:10;;;;;;;4.72;1.50;;;17.30;99.90;;;;;;4969953;28;20385;-55
2023/06/29 15:56:36;;;;;;;6.82;1.90;;;;;;;;;;4977316;28;20220;-53
2023/06/29 15:59:02;;;;;;;6.78;1.80;;;17.50;99.90;;;;;;4988791;28;20408;-54
2023/06/29 16:01:27;;;;;;;4.57;1.80;;;17.70;99.90;;;;;;4977495;28;20039;-55
2023/06/29 16:03:53;;;;;;;4.38;1.73;;;17.30;99.90;;;;;;4988570;28;20117;-56
2023/06/29 16:06:27;;;;;;;5.93;2.10;;;;;;;;;;4980596;28;20130;-54
2023/06/29 16:08:53;;;;;;;5.25;2.40;;;17.60;99.90;;;;;;4992542;28;20039;-56
2023/06/29 16:11:18;;;;;;;5.53;2.00;;;17.20;99.90;;;;;;4988757;28;20077;-55
2023/06/29 16:13:44;;;;;;;6.95;2.03;;;17.70;99.90;;;;;;4991287;28;20054;-57
2023/06/29 16:16:13;;;;;;;6.90;2.13;;;17.50;99.90;;;;;;4974673;28;20062;-57
2023/06/29 16:18:39;;;;;;;8.25;2.40;;;17.40;99.90;;;;;;4985360;28;20053;-55
2023/06/29 16:21:05;;;;;;;6.80;2.30;;;17.20;99.90;;;;;;4994706;28;20050;-59
2023/06/29 16:23:31;;;;;;;6.60;2.13;;;17.70;99.90;;;;;;4978932;28;20050;-56
2023/06/29 16:25:56;;;;;;;6.65;2.10;;;17.70;99.90;;;;;;4977711;28;20089;-58
2023/06/29 16:28:22;;;;;;;4.68;1.70;;;16.70;99.90;;;;;;4988131;28;20493;-56
2023/06/29 16:30:48;;;;;;;6.28;2.35;;;17.40;99.90;;;;;;4978692;28;20038;-54
2023/06/29 16:33:13;;;;;;;5.22;2.05;;;17.40;99.90;;;;;;4981670;28;20112;-56
2023/06/29 16:35:39;;;;;;;9.23;2.40;;;;;;;;;;4969562;28;20093;-57
2023/06/29 16:38:05;;;;;;;8.18;2.40;;;17.10;99.90;;;;;;4990473;28;20049;-58
2023/06/29 16:40:33;;;;;;;7.53;2.63;;;16.90;99.90;;;;;;4973338;28;20255;-56
2023/06/29 16:42:59;;;;;;;6.72;2.70;;;17.10;99.90;;;;;;4983404;28;20088;-55
2023/06/29 16:45:25;;;;;;;5.60;2.67;;;16.50;99.90;;;;;;4990696;28;20054;-59
2023/06/29 16:47:51;;;;;;;4.68;2.35;;;16.90;99.90;;;;;;4969542;28;20038;-52
2023/06/29 16:50:17;;;;;;;6.07;2.25;;;17.30;99.90;;;;;;4988952;28;20084;-56
2023/06/29 16:52:43;;;;;;;9.43;2.80;;;17.20;99.90;;;;;;4992076;28;20038;-57
2023/06/29 16:55:08;;;;;;;5.70;2.13;;;17.10;99.90;;;;;;4991966;28;20038;-57
2023/06/29 16:57:34;;;;;;;4.38;1.88;;;17.40;99.90;;;;;;4990911;28;20125;-57
2023/06/29 17:00:00;;;;;;;6.78;2.30;;;;;;;;;;4970788;28;20046;-57
2023/06/29 17:02:26;;;;;;;5.75;2.97;;;17.10;99.90;;;;;;4983064;28;20050;-55
2023/06/29 17:04:52;;;;;;;7.43;2.13;;;17.20;95.50;;;;;;4976514;28;20042;-55
2023/06/29 17:07:18;;;;;;;8.65;2.20;;;17.00;75.60;;;;;;4991263;28;20117;-56
2023/06/29 17:09:43;;;;;;;7.68;2.53;;;17.40;51.40;;;;;;4988641;28;20117;-56
2023/06/29 17:12:09;;;;;;;6.57;2.47;;;17.20;88.50;;;;;;4987793;28;20034;-58
2023/06/29 17:14:35;;;;;;;6.57;2.50;;;16.70;97.10;;;;;;4983531;28;20038;-56
2023/06/29 17:17:00;;;;;;;6.07;2.85;;;17.00;96.70;;;;;;4990969;28;20057;-56
2023/06/29 17:19:26;;;;;;;8.45;2.95;;;;;;;;;;4972530;28;20385;-55
2023/06/29 17:21:52;;;;;;;6.22;2.88;;;;;;;;;;4992930;28;20112;-56
2023/06/29 17:24:19;;;;;;;10.00;3.33;;;16.70;99.90;;;;;;4992740;28;20055;-54
2023/06/29 17:26:45;;;;;;;7.10;2.95;;;16.80;99.90;;;;;;4986081;28;20074;-56
2023/06/29 17:29:11;;;;;;;6.88;2.60;;;;;;;;;;4981657;28;20391;-51
2023/06/29 17:31:37;;;;;;;7.65;3.47;;;16.40;99.90;;;;;;4927107;28;20065;-56
2023/06/29 17:34:04;;;;;;;7.78;3.40;;;16.10;99.90;;;;;;4976518;28;20510;-57
2023/06/29 17:36:30;;;;;;;7.57;3.35;;;16.80;99.90;;;;;;4986344;28;20046;-55
2023/06/29 17:38:56;;;;;;;6.63;2.92;;;16.80;99.90;;;;;;4980033;28;20509;-57
2023/06/29 17:41:21;;;;;;;5.93;2.90;;;16.70;99.90;;;;;;4995575;28;20042;-56
2023/06/29 17:43:51;;;;;;;10.18;3.10;;;;;;;;;;4962994;28;20355;-56
2023/06/29 17:46:17;;;;;;;10.82;2.97;;;;;;;;;;4893133;28;20558;-55
2023/06/29 17:48:44;;;;;;;8.70;2.40;;;15.90;99.90;;;;;;4985000;23;20046;-67
2023/06/29 17:51:19;;;;;;;9.75;2.60;;;;;;;;;;4988287;28;20089;-68
2023/06/29 17:53:46;;;;;;;8.82;3.05;;;16.20;99.90;;;;;;4947683;28;20227;-67
2023/06/29 17:56:14;;;;;;;11.02;2.83;;;16.00;99.90;;;;;;4962318;28;20069;-67
2023/06/29 17:58:39;;;;;;;5.90;2.40;;;16.40;99.90;;;;;;4955990;28;20742;-67
2023/06/29 18:01:05;;;;;;;8.25;2.70;;;16.40;99.90;;;;;;4962097;28;20623;-67
2023/06/29 18:03:31;;;;;;;6.90;2.83;;;16.30;99.90;;;;;;4960499;28;20481;-67
2023/06/29 18:05:56;;;;;;;7.85;2.55;;;16.30;99.90;;;;;;4965973;28;20039;-67
2023/06/29 18:08:23;;;;;;;7.90;2.60;;;15.80;99.90;;;;;;4972258;28;20046;-68
2023/06/29 18:10:48;;;;;;;12.13;3.10;;;15.70;99.90;;;;;;4957159;28;20110;-67
2023/06/29 18:13:14;;;;;;;6.80;2.45;;;16.30;99.90;;;;;;4963222;28;20107;-67
2023/06/29 18:15:40;;;;;;;9.30;3.25;;;16.20;99.90;;;;;;4962724;28;20068;-67
2023/06/29 18:18:06;;;;;;;7.63;2.17;;;16.30;99.90;;;;;;4959409;28;20082;-67
2023/06/29 18:20:32;;;;;;;6.03;2.50;;;16.30;99.90;;;;;;4970979;28;20511;-68
2023/06/29 18:22:57;;;;;;;7.65;2.80;;;15.90;99.90;;;;;;4966967;28;20045;-67
2023/06/29 18:25:23;;;;;;;7.10;2.67;;;16.30;99.90;;;;;;4971214;28;20038;-68
2023/06/29 18:27:49;;;;;;;9.68;2.53;;;15.80;99.90;;;;;;4964646;28;20507;-67
2023/06/29 18:30:15;;;;;;;5.85;2.10;;;16.40;94.40;;;;;;4968020;28;20188;-68
2023/06/29 18:33:09;;;;;;;6.43;1.95;;;;;;;;;;4967302;28;20034;-67
2023/06/29 18:35:51;;;;;;;5.50;1.70;;;;;;;;;;4957830;28;20046;-67
2023/06/29 18:38:18;;;;;;;6.20;1.92;;;;;;;;;;4974366;28;20039;-67
2023/06/29 18:40:49;;;;;;;6.57;1.83;;;;;;;;;;4934041;28;20366;-67
2023/06/29 18:43:15;;;;;;;5.53;1.70;;;17.10;1.00;;;;;;4933485;28;20328;-67
2023/06/29 18:45:42;;;;;;;9.20;2.10;;;15.80;1.00;;;;;;4977170;28;20716;-67
2023/06/29 18:48:11;;;;;;;4.68;1.73;;;16.20;1.00;;;;;;4962653;28;20030;-65
2023/06/29 18:50:38;;;;;;;5.35;1.92;;;16.20;1.00;;;;;;4971892;28;20046;-67
2023/06/29 18:53:04;;;;;;;7.35;1.58;;;15.80;1.00;;;;;;4974471;28;20041;-66
2023/06/29 18:55:33;;;;;;;5.93;2.05;;;15.70;1.00;;;;;;4973483;28;20035;-67
2023/06/29 18:57:59;;;;;;;4.75;1.95;;;15.80;1.00;;;;;;4960926;28;20046;-66
2023/06/29 19:00:29;;;;;;;7.70;2.45;;;15.90;1.00;;;;;;4980536;28;20081;-66
2023/06/29 19:02:56;;;;;;;7.82;3.17;;;;;;;;;;4970609;28;20083;-66
2023/06/29 19:05:26;;;;;;;7.85;2.78;;;;;;;;;;4955490;28;20482;-67
2023/06/29 19:07:56;;;;;;;7.65;2.78;;;;;;;;;;4945687;28;20291;-67
2023/06/29 19:10:23;;;;;;;6.95;3.05;;;;;;;;;;4925369;28;20090;-64
2023/06/29 19:13:08;;;;;;;9.90;3.67;;;;;;;;;;4920109;28;20445;-65
2023/06/29 19:15:35;;;;;;;8.65;3.60;;;16.50;1.00;;;;;;4930242;28;20034;-65
2023/06/29 19:18:00;;;;;;;9.40;3.40;;;16.30;1.00;;;;;;4959633;28;20057;-65
2023/06/29 19:20:26;;;;;;;11.93;3.95;;;16.30;1.00;;;;;;4962245;28;20126;-65
2023/06/29 19:22:54;;;;;;;8.32;4.05;;;16.90;1.00;;;;;;4962588;28;20038;-65
2023/06/29 19:25:20;;;;;;;9.38;3.60;;;15.80;1.00;;;;;;4965016;28;20042;-65
2023/06/29 19:27:46;;;;;;;7.13;3.50;;;16.60;1.00;;;;;;4967394;28;20039;-65
2023/06/29 19:30:12;;;;;;;11.27;4.43;;;16.30;1.00;;;;;;4966534;28;20045;-65
2023/06/29 19:32:37;;;;;;;13.60;4.95;;;16.60;1.00;;;;;;4959322;28;20085;-65
2023/06/29 19:35:04;;;;;;;8.00;3.78;;;15.60;8.20;;;;;;4967673;28;20069;-65
2023/06/29 19:37:30;;;;;;;10.73;4.47;;;16.10;16.80;;;;;;4978675;28;20179;-65
2023/06/29 19:39:56;;;;;;;9.13;4.80;;;;;;;;;;4970919;28;20417;-65
2023/06/29 19:42:22;;;;;;;13.55;5.03;;;15.70;36.40;;;;;;4964464;28;20125;-65
2023/06/29 19:44:48;;;;;;;9.60;4.70;;;16.60;45.10;;;;;;4968167;28;20070;-65
2023/06/29 19:47:14;;;;;;;12.27;4.10;;;;;;;;;;4962913;28;20043;-65
2023/06/29 19:49:39;;;;;;;11.45;5.10;;;16.40;42.10;;;;;;4957020;28;20469;-65
2023/06/29 19:52:05;;;;;;;16.13;5.22;;;16.60;34.80;;;;;;4967771;28;20038;-65
2023/06/29 19:54:31;;;;;;;13.75;5.20;;;16.40;39.70;;;;;;4965603;28;20137;-65
2023/06/29 19:56:57;;;;;;;9.45;5.25;;;16.10;24.60;;;;;;4975643;28;20529;-65
2023/06/29 19:59:23;;;;;;;11.90;5.20;;;16.80;28.40;;;;;;4969335;28;20038;-65
2023/06/29 20:01:48;;;;;;;13.82;4.30;;;16.30;53.10;;;;;;4961533;28;20042;-65
2023/06/29 20:04:14;;;;;;;13.00;4.85;;;16.10;47.00;;;;;;4962246;28;20118;-65
2023/06/29 20:06:40;;;;;;;10.30;4.65;;;16.40;38.20;;;;;;4964300;28;20047;-65
2023/06/29 20:09:05;;;;;;;12.77;4.28;;;16.10;25.70;;;;;;4959933;28;20094;-66
2023/06/29 20:11:31;;;;;;;10.52;4.13;;;16.30;15.40;;;;;;4958820;28;20065;-65
2023/06/29 20:13:57;;;;;;;14.10;4.20;;;16.20;21.40;;;;;;4969024;28;20044;-65
2023/06/29 20:16:23;;;;;;;13.73;4.55;;;;;;;;;;4967961;28;20047;-66
2023/06/29 20:18:50;;;;;;;13.23;4.45;;;16.40;23.30;;;;;;4964100;28;20102;-65
2023/06/29 20:21:17;;;;;;;9.80;4.50;;;16.20;25.20;;;;;;4967461;28;20043;-65
2023/06/29 20:23:43;;;;;;;11.07;3.70;;;15.80;13.10;;;;;;4981968;28;20054;-65
2023/06/29 20:26:09;;;;;;;11.82;3.92;;;16.20;24.90;;;;;;4967221;28;20043;-65
2023/06/29 20:28:34;;;;;;;10.10;3.80;;;16.10;24.50;;;;;;4969899;28;20038;-65
2023/06/29 20:31:00;;;;;;;10.35;4.15;;;15.80;18.10;;;;;;4970167;28;20042;-65
2023/06/29 20:33:26;;;;;;;11.50;4.93;;;15.80;23.30;;;;;;4965420;28;20039;-65
2023/06/29 20:35:51;;;;;;;12.15;4.63;;;15.80;33.80;;;;;;4963515;28;20109;-65
2023/06/29 20:38:17;;;;;;;11.00;4.22;;;15.70;36.80;;;;;;4966830;28;20043;-65
2023/06/29 20:40:44;;;;;;;11.85;4.43;;;15.70;42.40;;;;;;4963431;28;20144;-65
2023/06/29 20:43:11;;;;;;;11.23;4.32;;;15.40;61.20;;;;;;4960677;28;20117;-65
2023/06/29 20:45:37;;;;;;;16.45;4.65;;;;;;;;;;4968584;28;20515;-65
2023/06/29 20:48:03;;;;;;;9.13;3.78;;;15.50;24.60;;;;;;4968477;28;20031;-65
2023/06/29 20:50:29;;;;;;;12.55;3.65;;;15.60;27.80;;;;;;4966228;28;20058;-65
2023/06/29 20:52:55;;;;;;;12.73;4.82;;;15.60;38.00;;;;;;4964743;28;20177;-65
2023/06/29 20:55:20;;;;;;;13.05;6.15;;;15.40;53.10;;;;;;4973985;28;20034;-65
2023/06/29 20:57:46;;;;;;;9.55;3.60;;;14.90;47.50;;;;;;4972275;28;20090;-65
2023/06/29 21:00:12;;;;;;;10.43;4.13;;;15.30;71.20;;;;;;4970453;28;20234;-66
2023/06/29 21:02:38;;;;;;;13.07;3.95;;;15.50;79.50;;;;;;4969904;28;20093;-65
2023/06/29 21:05:06;;;;;;;11.52;3.78;;;15.40;83.50;;;;;;4973456;28;20034;-65
2023/06/29 21:07:32;;;;;;;11.48;3.97;;;;;;;;;;4969559;28;20447;-65
2023/06/29 21:09:58;;;;;;;10.02;4.05;;;15.20;73.60;;;;;;4970470;28;20089;-65
2023/06/29 21:12:24;;;;;;;12.45;4.15;;;15.40;67.60;;;;;;4968064;28;20034;-65
2023/06/29 21:14:49;;;;;;;12.13;4.30;;;15.20;68.80;;;;;;4961747;28;20114;-65
2023/06/29 21:17:15;;;;;;;11.02;4.13;;;14.60;60.40;;;;;;4973537;28;20045;-65
2023/06/29 21:19:41;;;;;;;7.50;3.30;;;15.10;42.90;;;;;;4962734;28;20031;-65
2023/06/29 21:22:08;;;;;;;12.35;3.85;;;15.40;42.80;;;;;;4972157;28;20042;-65
2023/06/29 21:24:33;;;;;;;9.52;3.60;;;14.60;54.20;;;;;;4970678;28;20133;-65
2023/06/29 21:26:59;;;;;;;10.50;3.55;;;15.00;66.20;;;;;;4985676;28;22002;-65
2023/06/29 21:29:27;;;;;;;11.60;4.07;;;;;;;;;;4971520;28;20050;-65
2023/06/29 21:31:54;;;;;;;8.18;2.88;;;;;;;;;;4966070;28;20095;-65
2023/06/29 21:34:20;;;;;;;12.20;3.40;;;15.00;25.00;;;;;;4967984;28;20117;-65
2023/06/29 21:36:46;;;;;;;9.75;3.33;;;14.90;15.60;;;;;;4965586;28;20129;-65
2023/06/29 21:39:12;;;;;;;15.98;4.18;;;14.90;23.30;;;;;;4960899;28;20114;-65
2023/06/29 21:41:37;;;;;;;8.40;4.10;;;14.70;22.20;;;;;;4963853;28;20034;-65
2023/06/29 21:44:03;;;;;;;10.68;3.67;;;14.80;21.20;;;;;;4971176;28;20110;-65
2023/06/29 21:46:29;;;;;;;12.13;3.45;;;14.90;23.30;;;;;;4967004;28;20043;-65
2023/06/29 21:48:55;;;;;;;8.40;4.20;;;14.80;18.60;;;;;;4968605;28;20397;-65
2023/06/29 21:51:21;;;;;;;13.30;4.13;;;14.60;26.00;;;;;;4966437;28;20051;-65
2023/06/29 21:53:47;;;;;;;9.63;3.20;;;14.70;20.10;;;;;;4958359;28;20457;-63
2023/06/29 21:56:12;;;;;;;10.73;3.40;;;14.60;3.00;;;;;;4961049;28;20162;-64
2023/06/29 21:58:38;;;;;;;10.40;3.35;;;14.90;1.00;;;;;;4961414;28;20118;-64
2023/06/29 22:01:04;;;;;;;10.40;3.33;;;14.70;1.00;;;;;;4962846;28;20118;-63
2023/06/29 22:03:30;;;;;;;8.48;2.90;;;14.90;1.10;;;;;;4961582;28;20054;-64
2023/06/29 22:05:56;;;;;;;10.48;3.10;;;14.60;1.00;;;;;;4963158;28;20495;-64
2023/06/29 22:08:21;;;;;;;14.15;3.40;;;14.40;1.00;;;;;;4967511;28;20086;-63
2023/06/29 22:10:47;;;;;;;10.63;3.33;;;;;;;;;;4959633;28;20383;-63
2023/06/29 22:13:13;;;;;;;8.05;3.33;;;14.40;1.00;;;;;;4956222;28;20130;-65
2023/06/29 22:15:43;;;;;;;8.52;3.28;;;14.90;1.00;;;;;;4952498;28;20491;-65
2023/06/29 22:18:09;;;;;;;9.60;3.08;;;14.30;1.00;;;;;;4965456;28;20121;-64
2023/06/29 22:20:35;;;;;;;9.52;3.03;;;14.30;1.00;;;;;;4972457;28;20551;-64
2023/06/29 22:23:01;;;;;;;11.52;3.63;;;;;;;;;;4964756;28;20031;-64
2023/06/29 22:25:26;;;;;;;9.20;3.70;;;14.20;1.00;;;;;;4965904;28;20074;-64
2023/06/29 22:27:53;;;;;;;12.30;3.85;;;;;;;;;;4962802;28;20595;-64
2023/06/29 22:30:19;;;;;;;9.43;3.25;;;;;;;;;;4970515;28;20129;-64
2023/06/29 22:32:45;;;;;;;9.07;3.42;;;;;;;;;;4967424;28;20055;-64
2023/06/29 22:35:11;;;;;;;13.68;3.85;;;;;;;;;;4966011;28;20105;-65
2023/06/29 22:37:37;;;;;;;9.38;3.22;;;;;;;;;;4962037;28;20058;-64
2023/06/29 22:40:04;;;;;;;9.18;2.85;;;14.10;1.00;;;;;;4969813;28;20070;-64
2023/06/29 22:42:31;;;;;;;11.95;3.05;;;;;;;;;;4965941;28;20493;-64
2023/06/29 22:44:56;;;;;;;12.70;3.78;;;14.30;1.00;;;;;;4969944;28;20134;-64
2023/06/29 22:47:22;;;;;;;9.90;3.40;;;13.90;1.00;;;;;;4962457;28;20475;-64
2023/06/29 22:49:49;;;;;;;12.90;3.97;;;13.90;1.00;;;;;;4960434;28;20047;-64
2023/06/29 22:52:19;;;;;;;8.35;2.90;;;13.90;1.00;;;;;;4954075;28;20050;-64
2023/06/29 22:54:46;;;;;;;11.27;3.90;;;;;;;;;;4940393;28;20070;-64
2023/06/29 22:57:12;;;;;;;9.13;2.80;;;13.90;1.00;;;;;;4963387;28;20074;-64
2023/06/29 22:59:38;;;;;;;9.30;3.47;;;;;;;;;;4957386;28;20150;-64
2023/06/29 23:02:04;;;;;;;10.48;3.25;;;;;;;;;;4965428;28;20046;-64
2023/06/29 23:04:31;;;;;;;13.13;3.30;;;;;;;;;;4954067;28;20134;-64
2023/06/29 23:07:00;;;;;;;10.05;3.25;;;;;;;;;;4955556;28;20055;-64
2023/06/29 23:09:27;;;;;;;11.55;3.17;;;13.40;2.10;;;;;;4971243;28;20570;-64
2023/06/29 23:11:53;;;;;;;10.77;3.78;;;;;;;;;;4962110;28;20125;-64
2023/06/29 23:14:19;;;;;;;8.60;3.65;;;;;;;;;;4956580;28;20043;-64
2023/06/29 23:16:46;;;;;;;11.13;3.53;;;;;;;;;;4954417;28;20043;-64
2023/06/29 23:19:13;;;;;;;9.43;2.67;;;13.50;25.60;;;;;;4966758;28;20072;-64
2023/06/29 23:21:39;;;;;;;10.82;3.15;;;13.50;46.00;;;;;;4958994;28;20043;-64
2023/06/29 23:24:05;;;;;;;9.45;3.13;;;13.40;28.40;;;;;;4965208;28;20031;-64
2023/06/29 23:26:31;;;;;;;8.13;3.35;;;;;;;;;;4961763;28;20038;-64
2023/06/29 23:28:58;;;;;;;9.40;3.05;;;;;;;;;;4969384;28;20039;-64
2023/06/29 23:31:24;;;;;;;10.88;3.70;;;13.30;45.00;;;;;;4956607;28;20082;-64
2023/06/29 23:33:49;;;;;;;10.93;3.35;;;13.30;41.80;;;;;;4953712;28;20071;-64
2023/06/29 23:36:21;;;;;;;10.23;3.20;;;13.40;48.20;;;;;;4957999;28;20077;-64
2023/06/29 23:38:48;;;;;;;7.95;3.70;;;;;;;;;;4962349;28;20077;-64
2023/06/29 23:41:15;;;;;;;8.90;2.90;;;;;;;;;;4954159;28;20118;-64
2023/06/29 23:43:42;;;;;;;8.35;3.88;;;13.20;39.20;;;;;;4961810;28;20149;-64
2023/06/29 23:46:12;;;;;;;7.95;3.15;;;13.30;37.20;;;;;;4957578;28;20077;-64
2023/06/29 23:48:38;;;;;;;6.90;3.13;;;13.30;23.80;;;;;;4959078;28;20571;-64
2023/06/29 23:51:05;;;;;;;8.15;3.50;;;;;;;;;;4952316;28;20465;-64
2023/06/29 23:53:31;;;;;;;11.77;3.92;;;13.40;1.80;;;;;;4967372;28;20047;-64
2023/06/29 23:55:56;;;;;;;10.75;3.10;;;13.30;5.10;;;;;;4960471;28;20117;-64
2023/06/29 23:58:22;;;;;;;9.68;3.53;;;13.30;1.00;;;;;;4956750;28;20035;-64
